sensor_id;sensor_type;location;lat;lon;timestamp;temperature;humidity
13796;SHT30;40911;51.552;9.874;2023-08-08T00:02:20;12.81;86.99
13796;SHT30;40911;51.552;9.874;2023-08-08T00:04:42;12.82;87.12
13796;SHT30;40911;51.552;9.874;2023-08-08T00:07:03;12.81;86.95
13796;SHT30;40911;51.552;9.874;2023-08-08T00:09:26;12.74;87.31
13796;SHT30;40911;51.552;9.874;2023-08-08T00:11:48;12.69;87.51
13796;SHT30;40911;51.552;9.874;2023-08-08T00:14:10;12.72;87.34
13796;SHT30;40911;51.552;9.874;2023-08-08T00:16:31;12.71;87.48
13796;SHT30;40911;51.552;9.874;2023-08-08T00:18:54;12.61;87.71
13796;SHT30;40911;51.552;9.874;2023-08-08T00:21:16;12.60;87.86
13796;SHT30;40911;51.552;9.874;2023-08-08T00:23:38;12.57;87.96
13796;SHT30;40911;51.552;9.874;2023-08-08T00:26:00;12.51;88.34
13796;SHT30;40911;51.552;9.874;2023-08-08T00:28:21;12.55;88.11
13796;SHT30;40911;51.552;9.874;2023-08-08T00:30:43;12.54;88.13
13796;SHT30;40911;51.552;9.874;2023-08-08T00:33:05;12.50;88.19
13796;SHT30;40911;51.552;9.874;2023-08-08T00:35:28;12.53;88.28
13796;SHT30;40911;51.552;9.874;2023-08-08T00:37:50;12.43;88.52
13796;SHT30;40911;51.552;9.874;2023-08-08T00:40:11;12.47;88.46
13796;SHT30;40911;51.552;9.874;2023-08-08T00:42:33;12.44;88.55
13796;SHT30;40911;51.552;9.874;2023-08-08T00:44:55;12.53;88.35
13796;SHT30;40911;51.552;9.874;2023-08-08T00:47:22;12.44;88.89
13796;SHT30;40911;51.552;9.874;2023-08-08T00:49:43;12.43;89.17
13796;SHT30;40911;51.552;9.874;2023-08-08T00:52:08;12.38;89.16
13796;SHT30;40911;51.552;9.874;2023-08-08T00:54:30;12.38;89.03
13796;SHT30;40911;51.552;9.874;2023-08-08T00:56:52;12.37;89.33
13796;SHT30;40911;51.552;9.874;2023-08-08T00:59:14;12.38;89.25
13796;SHT30;40911;51.552;9.874;2023-08-08T01:01:37;12.40;89.15
13796;SHT30;40911;51.552;9.874;2023-08-08T01:03:58;12.40;89.17
13796;SHT30;40911;51.552;9.874;2023-08-08T01:06:28;12.38;89.26
13796;SHT30;40911;51.552;9.874;2023-08-08T01:08:57;12.40;89.13
13796;SHT30;40911;51.552;9.874;2023-08-08T01:11:19;12.41;89.09
13796;SHT30;40911;51.552;9.874;2023-08-08T01:13:41;12.34;89.34
13796;SHT30;40911;51.552;9.874;2023-08-08T01:16:04;12.37;89.38
13796;SHT30;40911;51.552;9.874;2023-08-08T01:18:27;12.37;89.48
13796;SHT30;40911;51.552;9.874;2023-08-08T01:20:48;12.30;89.94
13796;SHT30;40911;51.552;9.874;2023-08-08T01:23:16;12.27;89.94
13796;SHT30;40911;51.552;9.874;2023-08-08T01:25:42;12.27;89.61
13796;SHT30;40911;51.552;9.874;2023-08-08T01:28:05;12.33;89.46
13796;SHT30;40911;51.552;9.874;2023-08-08T01:30:27;12.22;90.04
13796;SHT30;40911;51.552;9.874;2023-08-08T01:32:48;12.27;89.71
13796;SHT30;40911;51.552;9.874;2023-08-08T01:35:10;12.29;89.66
13796;SHT30;40911;51.552;9.874;2023-08-08T01:37:32;12.26;89.53
13796;SHT30;40911;51.552;9.874;2023-08-08T01:39:58;12.33;89.26
13796;SHT30;40911;51.552;9.874;2023-08-08T01:42:23;12.32;89.43
13796;SHT30;40911;51.552;9.874;2023-08-08T01:44:45;12.33;89.36
13796;SHT30;40911;51.552;9.874;2023-08-08T01:47:08;12.40;88.95
13796;SHT30;40911;51.552;9.874;2023-08-08T01:49:30;12.38;89.09
13796;SHT30;40911;51.552;9.874;2023-08-08T01:51:51;12.41;89.23
13796;SHT30;40911;51.552;9.874;2023-08-08T01:54:13;12.41;89.37
13796;SHT30;40911;51.552;9.874;2023-08-08T01:56:35;12.41;89.28
13796;SHT30;40911;51.552;9.874;2023-08-08T01:58:58;12.43;89.69
13796;SHT30;40911;51.552;9.874;2023-08-08T02:01:19;12.50;89.13
13796;SHT30;40911;51.552;9.874;2023-08-08T02:03:41;12.46;89.28
13796;SHT30;40911;51.552;9.874;2023-08-08T02:06:03;12.51;89.26
13796;SHT30;40911;51.552;9.874;2023-08-08T02:08:24;12.48;89.07
13796;SHT30;40911;51.552;9.874;2023-08-08T02:10:46;12.50;89.19
13796;SHT30;40911;51.552;9.874;2023-08-08T02:13:08;12.48;89.57
13796;SHT30;40911;51.552;9.874;2023-08-08T02:15:31;12.50;89.27
13796;SHT30;40911;51.552;9.874;2023-08-08T02:17:52;12.54;89.10
13796;SHT30;40911;51.552;9.874;2023-08-08T02:20:14;12.55;88.89
13796;SHT30;40911;51.552;9.874;2023-08-08T02:22:36;12.63;87.96
13796;SHT30;40911;51.552;9.874;2023-08-08T02:24:58;12.65;87.87
13796;SHT30;40911;51.552;9.874;2023-08-08T02:27:19;12.68;87.48
13796;SHT30;40911;51.552;9.874;2023-08-08T02:29:41;12.58;88.07
13796;SHT30;40911;51.552;9.874;2023-08-08T02:32:04;12.64;87.62
13796;SHT30;40911;51.552;9.874;2023-08-08T02:34:26;12.69;86.74
13796;SHT30;40911;51.552;9.874;2023-08-08T02:36:48;12.69;86.55
13796;SHT30;40911;51.552;9.874;2023-08-08T02:39:09;12.65;87.33
13796;SHT30;40911;51.552;9.874;2023-08-08T02:41:31;12.68;86.99
13796;SHT30;40911;51.552;9.874;2023-08-08T02:43:53;12.71;87.23
13796;SHT30;40911;51.552;9.874;2023-08-08T02:46:14;12.68;87.49
13796;SHT30;40911;51.552;9.874;2023-08-08T02:48:37;12.68;87.30
13796;SHT30;40911;51.552;9.874;2023-08-08T02:50:59;12.71;87.62
13796;SHT30;40911;51.552;9.874;2023-08-08T02:53:20;12.65;87.46
13796;SHT30;40911;51.552;9.874;2023-08-08T02:55:42;12.69;87.60
13796;SHT30;40911;51.552;9.874;2023-08-08T02:58:04;12.68;88.04
13796;SHT30;40911;51.552;9.874;2023-08-08T03:00:25;12.69;88.14
13796;SHT30;40911;51.552;9.874;2023-08-08T03:02:47;12.61;88.63
13796;SHT30;40911;51.552;9.874;2023-08-08T03:05:10;12.61;88.69
13796;SHT30;40911;51.552;9.874;2023-08-08T03:07:32;12.57;89.02
13796;SHT30;40911;51.552;9.874;2023-08-08T03:09:53;12.53;89.65
13796;SHT30;40911;51.552;9.874;2023-08-08T03:12:14;12.57;89.45
13796;SHT30;40911;51.552;9.874;2023-08-08T03:14:36;12.50;90.31
13796;SHT30;40911;51.552;9.874;2023-08-08T03:16:57;12.48;90.84
13796;SHT30;40911;51.552;9.874;2023-08-08T03:19:19;12.48;90.34
13796;SHT30;40911;51.552;9.874;2023-08-08T03:21:42;12.43;91.00
13796;SHT30;40911;51.552;9.874;2023-08-08T03:24:04;12.40;91.13
13796;SHT30;40911;51.552;9.874;2023-08-08T03:26:26;12.36;91.47
13796;SHT30;40911;51.552;9.874;2023-08-08T03:28:48;12.36;92.04
13796;SHT30;40911;51.552;9.874;2023-08-08T03:31:11;12.33;92.21
13796;SHT30;40911;51.552;9.874;2023-08-08T03:33:32;12.34;92.28
13796;SHT30;40911;51.552;9.874;2023-08-08T03:35:54;12.30;92.18
13796;SHT30;40911;51.552;9.874;2023-08-08T03:38:17;12.32;92.29
13796;SHT30;40911;51.552;9.874;2023-08-08T03:40:38;12.27;92.68
13796;SHT30;40911;51.552;9.874;2023-08-08T03:43:00;12.23;92.98
13796;SHT30;40911;51.552;9.874;2023-08-08T03:45:22;12.19;92.90
13796;SHT30;40911;51.552;9.874;2023-08-08T03:47:43;12.16;92.86
13796;SHT30;40911;51.552;9.874;2023-08-08T03:50:06;12.12;93.30
13796;SHT30;40911;51.552;9.874;2023-08-08T03:52:29;12.17;92.57
13796;SHT30;40911;51.552;9.874;2023-08-08T03:54:52;12.19;92.87
13796;SHT30;40911;51.552;9.874;2023-08-08T03:57:14;12.16;92.96
13796;SHT30;40911;51.552;9.874;2023-08-08T03:59:36;12.20;93.02
13796;SHT30;40911;51.552;9.874;2023-08-08T04:01:58;12.12;92.95
13796;SHT30;40911;51.552;9.874;2023-08-08T04:04:19;12.20;93.11
13796;SHT30;40911;51.552;9.874;2023-08-08T04:06:41;12.20;92.96
13796;SHT30;40911;51.552;9.874;2023-08-08T04:09:03;12.10;93.22
13796;SHT30;40911;51.552;9.874;2023-08-08T04:11:26;12.16;93.11
13796;SHT30;40911;51.552;9.874;2023-08-08T04:13:47;12.19;93.02
13796;SHT30;40911;51.552;9.874;2023-08-08T04:16:09;12.20;92.75
13796;SHT30;40911;51.552;9.874;2023-08-08T04:18:31;12.25;92.85
13796;SHT30;40911;51.552;9.874;2023-08-08T04:20:52;12.23;92.71
13796;SHT30;40911;51.552;9.874;2023-08-08T04:23:14;12.20;92.53
13796;SHT30;40911;51.552;9.874;2023-08-08T04:25:36;12.22;92.69
13796;SHT30;40911;51.552;9.874;2023-08-08T04:27:59;12.25;92.66
13796;SHT30;40911;51.552;9.874;2023-08-08T04:30:21;12.22;92.31
13796;SHT30;40911;51.552;9.874;2023-08-08T04:32:43;12.22;92.41
13796;SHT30;40911;51.552;9.874;2023-08-08T04:35:05;12.17;92.71
13796;SHT30;40911;51.552;9.874;2023-08-08T04:37:27;12.16;92.94
13796;SHT30;40911;51.552;9.874;2023-08-08T04:39:48;12.20;92.61
13796;SHT30;40911;51.552;9.874;2023-08-08T04:42:10;12.20;92.64
13796;SHT30;40911;51.552;9.874;2023-08-08T04:44:33;12.23;92.89
13796;SHT30;40911;51.552;9.874;2023-08-08T04:46:55;12.23;92.79
13796;SHT30;40911;51.552;9.874;2023-08-08T04:49:17;12.27;92.68
13796;SHT30;40911;51.552;9.874;2023-08-08T04:51:39;12.25;92.79
13796;SHT30;40911;51.552;9.874;2023-08-08T04:54:00;12.22;92.96
13796;SHT30;40911;51.552;9.874;2023-08-08T04:56:22;12.29;93.19
13796;SHT30;40911;51.552;9.874;2023-08-08T04:58:44;12.25;92.54
13796;SHT30;40911;51.552;9.874;2023-08-08T05:01:07;12.36;92.94
13796;SHT30;40911;51.552;9.874;2023-08-08T05:03:34;12.38;92.79
13796;SHT30;40911;51.552;9.874;2023-08-08T05:05:56;12.41;93.15
13796;SHT30;40911;51.552;9.874;2023-08-08T05:08:19;12.37;93.25
13796;SHT30;40911;51.552;9.874;2023-08-08T05:10:41;12.41;93.32
13796;SHT30;40911;51.552;9.874;2023-08-08T05:13:03;12.41;93.24
13796;SHT30;40911;51.552;9.874;2023-08-08T05:15:25;12.41;93.03
13796;SHT30;40911;51.552;9.874;2023-08-08T05:17:48;12.50;92.45
13796;SHT30;40911;51.552;9.874;2023-08-08T05:20:10;12.55;92.29
13796;SHT30;40911;51.552;9.874;2023-08-08T05:22:32;12.60;92.61
13796;SHT30;40911;51.552;9.874;2023-08-08T05:24:54;12.65;92.61
13796;SHT30;40911;51.552;9.874;2023-08-08T05:27:15;12.60;92.89
13796;SHT30;40911;51.552;9.874;2023-08-08T05:29:37;12.57;93.14
13796;SHT30;40911;51.552;9.874;2023-08-08T05:31:59;12.55;93.01
13796;SHT30;40911;51.552;9.874;2023-08-08T05:34:23;12.63;92.93
13796;SHT30;40911;51.552;9.874;2023-08-08T05:36:44;12.67;93.45
13796;SHT30;40911;51.552;9.874;2023-08-08T05:39:07;12.84;92.85
13796;SHT30;40911;51.552;9.874;2023-08-08T05:41:29;12.89;92.57
13796;SHT30;40911;51.552;9.874;2023-08-08T05:43:51;13.13;92.17
13796;SHT30;40911;51.552;9.874;2023-08-08T05:46:13;13.27;92.39
13796;SHT30;40911;51.552;9.874;2023-08-08T05:48:34;13.26;91.99
13796;SHT30;40911;51.552;9.874;2023-08-08T05:50:57;13.23;91.75
13796;SHT30;40911;51.552;9.874;2023-08-08T05:53:20;13.16;91.68
13796;SHT30;40911;51.552;9.874;2023-08-08T05:55:42;13.18;91.75
13796;SHT30;40911;51.552;9.874;2023-08-08T05:58:03;13.15;92.16
13796;SHT30;40911;51.552;9.874;2023-08-08T06:00:25;13.06;91.79
13796;SHT30;40911;51.552;9.874;2023-08-08T06:02:47;13.08;91.77
13796;SHT30;40911;51.552;9.874;2023-08-08T06:05:10;13.12;92.04
13796;SHT30;40911;51.552;9.874;2023-08-08T06:07:33;13.09;91.90
13796;SHT30;40911;51.552;9.874;2023-08-08T06:09:55;13.13;91.49
13796;SHT30;40911;51.552;9.874;2023-08-08T06:12:17;13.18;91.57
13796;SHT30;40911;51.552;9.874;2023-08-08T06:14:41;13.22;91.32
13796;SHT30;40911;51.552;9.874;2023-08-08T06:17:04;13.26;91.41
13796;SHT30;40911;51.552;9.874;2023-08-08T06:19:26;13.22;91.60
13796;SHT30;40911;51.552;9.874;2023-08-08T06:21:48;13.19;91.74
13796;SHT30;40911;51.552;9.874;2023-08-08T06:24:12;13.09;91.30
13796;SHT30;40911;51.552;9.874;2023-08-08T06:26:33;13.08;91.74
13796;SHT30;40911;51.552;9.874;2023-08-08T06:28:55;13.09;92.23
13796;SHT30;40911;51.552;9.874;2023-08-08T06:31:17;13.05;92.39
13796;SHT30;40911;51.552;9.874;2023-08-08T06:33:39;13.11;92.68
13796;SHT30;40911;51.552;9.874;2023-08-08T06:36:01;13.16;92.03
13796;SHT30;40911;51.552;9.874;2023-08-08T06:38:23;13.26;92.07
13796;SHT30;40911;51.552;9.874;2023-08-08T06:40:46;13.22;92.00
13796;SHT30;40911;51.552;9.874;2023-08-08T06:43:08;13.23;92.65
13796;SHT30;40911;51.552;9.874;2023-08-08T06:45:30;13.23;92.27
13796;SHT30;40911;51.552;9.874;2023-08-08T06:47:51;13.20;92.21
13796;SHT30;40911;51.552;9.874;2023-08-08T06:50:13;13.22;92.31
13796;SHT30;40911;51.552;9.874;2023-08-08T06:52:35;13.27;91.96
13796;SHT30;40911;51.552;9.874;2023-08-08T06:54:56;13.27;91.49
13796;SHT30;40911;51.552;9.874;2023-08-08T06:57:20;13.32;91.89
13796;SHT30;40911;51.552;9.874;2023-08-08T06:59:41;13.41;91.71
13796;SHT30;40911;51.552;9.874;2023-08-08T07:02:03;13.47;91.88
13796;SHT30;40911;51.552;9.874;2023-08-08T07:04:25;13.37;91.30
13796;SHT30;40911;51.552;9.874;2023-08-08T07:06:47;13.46;91.25
13796;SHT30;40911;51.552;9.874;2023-08-08T07:09:08;13.54;91.39
13796;SHT30;40911;51.552;9.874;2023-08-08T07:11:31;13.70;91.15
13796;SHT30;40911;51.552;9.874;2023-08-08T07:13:54;13.73;90.58
13796;SHT30;40911;51.552;9.874;2023-08-08T07:16:16;13.92;90.53
13796;SHT30;40911;51.552;9.874;2023-08-08T07:18:37;14.04;90.03
13796;SHT30;40911;51.552;9.874;2023-08-08T07:20:59;14.32;89.71
13796;SHT30;40911;51.552;9.874;2023-08-08T07:23:20;14.26;89.39
13796;SHT30;40911;51.552;9.874;2023-08-08T07:25:42;14.23;90.31
13796;SHT30;40911;51.552;9.874;2023-08-08T07:28:04;14.12;89.61
13796;SHT30;40911;51.552;9.874;2023-08-08T07:30:27;14.16;89.49
13796;SHT30;40911;51.552;9.874;2023-08-08T07:32:49;14.34;89.62
13796;SHT30;40911;51.552;9.874;2023-08-08T07:35:11;14.50;89.26
13796;SHT30;40911;51.552;9.874;2023-08-08T07:37:32;14.44;89.55
13796;SHT30;40911;51.552;9.874;2023-08-08T07:39:54;14.36;89.85
13796;SHT30;40911;51.552;9.874;2023-08-08T07:42:16;14.29;89.33
13796;SHT30;40911;51.552;9.874;2023-08-08T07:44:38;14.40;89.40
13796;SHT30;40911;51.552;9.874;2023-08-08T07:47:01;14.63;89.86
13796;SHT30;40911;51.552;9.874;2023-08-08T07:49:23;14.78;89.33
13796;SHT30;40911;51.552;9.874;2023-08-08T07:51:44;14.63;88.22
13796;SHT30;40911;51.552;9.874;2023-08-08T07:54:06;14.60;89.07
13796;SHT30;40911;51.552;9.874;2023-08-08T07:56:29;14.52;88.95
13796;SHT30;40911;51.552;9.874;2023-08-08T07:58:50;14.60;88.74
13796;SHT30;40911;51.552;9.874;2023-08-08T08:01:12;14.96;89.10
13796;SHT30;40911;51.552;9.874;2023-08-08T08:03:36;15.18;87.85
13796;SHT30;40911;51.552;9.874;2023-08-08T08:05:57;15.49;87.19
13796;SHT30;40911;51.552;9.874;2023-08-08T08:08:19;15.85;84.49
13796;SHT30;40911;51.552;9.874;2023-08-08T08:10:41;16.35;84.69
13796;SHT30;40911;51.552;9.874;2023-08-08T08:13:04;16.35;84.98
13796;SHT30;40911;51.552;9.874;2023-08-08T08:15:25;16.05;85.15
13796;SHT30;40911;51.552;9.874;2023-08-08T08:17:47;16.11;85.16
13796;SHT30;40911;51.552;9.874;2023-08-08T08:20:11;16.19;85.14
13796;SHT30;40911;51.552;9.874;2023-08-08T08:22:33;16.11;86.63
13796;SHT30;40911;51.552;9.874;2023-08-08T08:24:54;15.88;85.91
13796;SHT30;40911;51.552;9.874;2023-08-08T08:27:17;16.01;86.22
13796;SHT30;40911;51.552;9.874;2023-08-08T08:29:39;15.81;85.60
13796;SHT30;40911;51.552;9.874;2023-08-08T08:32:01;16.11;86.19
13796;SHT30;40911;51.552;9.874;2023-08-08T08:34:23;15.92;85.40
13796;SHT30;40911;51.552;9.874;2023-08-08T08:36:46;16.07;85.52
13796;SHT30;40911;51.552;9.874;2023-08-08T08:39:08;15.67;85.18
13796;SHT30;40911;51.552;9.874;2023-08-08T08:41:29;15.74;85.61
13796;SHT30;40911;51.552;9.874;2023-08-08T08:43:53;15.63;85.34
13796;SHT30;40911;51.552;9.874;2023-08-08T08:46:20;15.98;85.43
13796;SHT30;40911;51.552;9.874;2023-08-08T08:48:42;16.33;85.52
13796;SHT30;40911;51.552;9.874;2023-08-08T08:51:04;16.40;85.42
13796;SHT30;40911;51.552;9.874;2023-08-08T08:53:27;15.81;85.96
13796;SHT30;40911;51.552;9.874;2023-08-08T08:55:50;15.81;86.13
13796;SHT30;40911;51.552;9.874;2023-08-08T08:58:14;15.95;85.45
13796;SHT30;40911;51.552;9.874;2023-08-08T09:00:37;16.81;83.24
13796;SHT30;40911;51.552;9.874;2023-08-08T09:02:58;17.54;83.35
13796;SHT30;40911;51.552;9.874;2023-08-08T09:05:21;17.21;82.69
13796;SHT30;40911;51.552;9.874;2023-08-08T09:07:43;18.36;82.28
13796;SHT30;40911;51.552;9.874;2023-08-08T09:10:07;17.66;80.90
13796;SHT30;40911;51.552;9.874;2023-08-08T09:12:30;17.83;81.44
13796;SHT30;40911;51.552;9.874;2023-08-08T09:14:54;18.56;80.17
13796;SHT30;40911;51.552;9.874;2023-08-08T09:17:16;18.38;78.86
13796;SHT30;40911;51.552;9.874;2023-08-08T09:19:38;17.94;79.75
13796;SHT30;40911;51.552;9.874;2023-08-08T09:22:01;18.25;78.43
13796;SHT30;40911;51.552;9.874;2023-08-08T09:24:22;18.55;78.75
13796;SHT30;40911;51.552;9.874;2023-08-08T09:26:45;18.29;79.18
13796;SHT30;40911;51.552;9.874;2023-08-08T09:29:08;18.35;77.35
13796;SHT30;40911;51.552;9.874;2023-08-08T09:31:30;18.77;76.69
13796;SHT30;40911;51.552;9.874;2023-08-08T09:33:53;18.41;76.14
13796;SHT30;40911;51.552;9.874;2023-08-08T09:36:15;18.24;76.70
13796;SHT30;40911;51.552;9.874;2023-08-08T09:38:37;17.57;77.57
13796;SHT30;40911;51.552;9.874;2023-08-08T09:40:59;17.83;77.97
13796;SHT30;40911;51.552;9.874;2023-08-08T09:43:22;17.54;77.01
13796;SHT30;40911;51.552;9.874;2023-08-08T09:45:44;17.83;77.10
13796;SHT30;40911;51.552;9.874;2023-08-08T09:48:06;17.94;76.87
13796;SHT30;40911;51.552;9.874;2023-08-08T09:50:28;17.74;77.21
13796;SHT30;40911;51.552;9.874;2023-08-08T09:52:50;17.93;77.69
13796;SHT30;40911;51.552;9.874;2023-08-08T09:55:14;18.01;76.94
13796;SHT30;40911;51.552;9.874;2023-08-08T09:57:38;18.53;75.44
13796;SHT30;40911;51.552;9.874;2023-08-08T10:00:02;18.35;74.85
13796;SHT30;40911;51.552;9.874;2023-08-08T10:02:25;18.12;75.72
13796;SHT30;40911;51.552;9.874;2023-08-08T10:04:47;18.70;74.79
13796;SHT30;40911;51.552;9.874;2023-08-08T10:07:09;18.32;75.77
13796;SHT30;40911;51.552;9.874;2023-08-08T10:09:31;18.46;75.59
13796;SHT30;40911;51.552;9.874;2023-08-08T10:11:54;19.15;73.81
13796;SHT30;40911;51.552;9.874;2023-08-08T10:14:17;18.86;74.63
13796;SHT30;40911;51.552;9.874;2023-08-08T10:16:41;19.34;73.12
13796;SHT30;40911;51.552;9.874;2023-08-08T10:19:04;19.48;71.57
13796;SHT30;40911;51.552;9.874;2023-08-08T10:21:27;19.32;72.36
13796;SHT30;40911;51.552;9.874;2023-08-08T10:24:01;19.56;71.28
13796;SHT30;40911;51.552;9.874;2023-08-08T10:26:22;19.76;71.10
13796;SHT30;40911;51.552;9.874;2023-08-08T10:28:52;19.46;69.85
13796;SHT30;40911;51.552;9.874;2023-08-08T10:31:19;19.74;69.57
13796;SHT30;40911;51.552;9.874;2023-08-08T10:33:43;19.52;70.17
13796;SHT30;40911;51.552;9.874;2023-08-08T10:36:06;19.14;71.09
13796;SHT30;40911;51.552;9.874;2023-08-08T10:38:39;18.91;70.91
13796;SHT30;40911;51.552;9.874;2023-08-08T10:41:02;19.21;71.04
13796;SHT30;40911;51.552;9.874;2023-08-08T10:43:28;18.98;71.74
13796;SHT30;40911;51.552;9.874;2023-08-08T10:45:50;18.41;71.29
13796;SHT30;40911;51.552;9.874;2023-08-08T10:48:12;18.00;72.21
13796;SHT30;40911;51.552;9.874;2023-08-08T10:50:40;17.94;72.36
13796;SHT30;40911;51.552;9.874;2023-08-08T10:53:02;18.01;71.05
13796;SHT30;40911;51.552;9.874;2023-08-08T10:55:25;18.01;71.23
13796;SHT30;40911;51.552;9.874;2023-08-08T10:57:55;19.24;69.10
13796;SHT30;40911;51.552;9.874;2023-08-08T11:00:17;18.87;69.30
13796;SHT30;40911;51.552;9.874;2023-08-08T11:02:40;19.11;70.08
13796;SHT30;40911;51.552;9.874;2023-08-08T11:05:02;19.30;70.65
13796;SHT30;40911;51.552;9.874;2023-08-08T11:07:28;19.18;68.75
13796;SHT30;40911;51.552;9.874;2023-08-08T11:09:50;18.84;68.38
13796;SHT30;40911;51.552;9.874;2023-08-08T11:12:15;18.69;69.78
13796;SHT30;40911;51.552;9.874;2023-08-08T11:14:37;18.26;69.54
13796;SHT30;40911;51.552;9.874;2023-08-08T11:16:59;18.00;70.05
13796;SHT30;40911;51.552;9.874;2023-08-08T11:19:21;17.97;70.62
13796;SHT30;40911;51.552;9.874;2023-08-08T11:21:45;17.83;71.68
13796;SHT30;40911;51.552;9.874;2023-08-08T11:24:09;18.05;72.24
13796;SHT30;40911;51.552;9.874;2023-08-08T11:26:31;18.53;70.72
13796;SHT30;40911;51.552;9.874;2023-08-08T11:28:53;18.38;71.33
13796;SHT30;40911;51.552;9.874;2023-08-08T11:31:15;18.52;71.78
13796;SHT30;40911;51.552;9.874;2023-08-08T11:33:36;18.12;70.81
13796;SHT30;40911;51.552;9.874;2023-08-08T11:35:59;17.87;70.78
13796;SHT30;40911;51.552;9.874;2023-08-08T11:38:20;17.74;72.22
13796;SHT30;40911;51.552;9.874;2023-08-08T11:40:44;17.52;74.94
13796;SHT30;40911;51.552;9.874;2023-08-08T11:43:06;16.78;79.11
13796;SHT30;40911;51.552;9.874;2023-08-08T11:45:28;16.56;80.52
13796;SHT30;40911;51.552;9.874;2023-08-08T11:47:50;16.39;82.12
13796;SHT30;40911;51.552;9.874;2023-08-08T11:50:12;16.29;83.56
13796;SHT30;40911;51.552;9.874;2023-08-08T11:52:34;16.18;84.69
13796;SHT30;40911;51.552;9.874;2023-08-08T11:54:58;16.36;84.70
13796;SHT30;40911;51.552;9.874;2023-08-08T11:57:21;16.19;85.54
13796;SHT30;40911;51.552;9.874;2023-08-08T11:59:43;16.08;85.94
13796;SHT30;40911;51.552;9.874;2023-08-08T12:02:05;16.17;85.93
13796;SHT30;40911;51.552;9.874;2023-08-08T12:04:27;16.25;87.56
13796;SHT30;40911;51.552;9.874;2023-08-08T12:06:49;16.26;85.76
13796;SHT30;40911;51.552;9.874;2023-08-08T12:09:11;16.33;85.36
13796;SHT30;40911;51.552;9.874;2023-08-08T12:11:34;16.36;85.29
13796;SHT30;40911;51.552;9.874;2023-08-08T12:14:00;16.68;85.76
13796;SHT30;40911;51.552;9.874;2023-08-08T12:16:22;16.36;84.57
13796;SHT30;40911;51.552;9.874;2023-08-08T12:18:43;16.59;84.78
13796;SHT30;40911;51.552;9.874;2023-08-08T12:21:06;16.63;84.91
13796;SHT30;40911;51.552;9.874;2023-08-08T12:23:28;16.77;83.91
13796;SHT30;40911;51.552;9.874;2023-08-08T12:25:49;16.60;86.15
13796;SHT30;40911;51.552;9.874;2023-08-08T12:28:11;16.53;84.64
13796;SHT30;40911;51.552;9.874;2023-08-08T12:30:34;16.56;83.02
13796;SHT30;40911;51.552;9.874;2023-08-08T12:32:56;16.33;83.41
13796;SHT30;40911;51.552;9.874;2023-08-08T12:35:17;16.26;82.67
13796;SHT30;40911;51.552;9.874;2023-08-08T12:37:40;16.30;83.82
13796;SHT30;40911;51.552;9.874;2023-08-08T12:40:03;16.43;82.37
13796;SHT30;40911;51.552;9.874;2023-08-08T12:42:26;17.04;80.23
13796;SHT30;40911;51.552;9.874;2023-08-08T12:44:48;16.97;80.12
13796;SHT30;40911;51.552;9.874;2023-08-08T12:47:13;17.10;81.17
13796;SHT30;40911;51.552;9.874;2023-08-08T12:49:36;17.05;80.28
13796;SHT30;40911;51.552;9.874;2023-08-08T12:51:58;17.04;81.17
13796;SHT30;40911;51.552;9.874;2023-08-08T12:54:19;17.28;80.19
13796;SHT30;40911;51.552;9.874;2023-08-08T12:56:41;17.59;79.59
13796;SHT30;40911;51.552;9.874;2023-08-08T12:59:03;17.56;79.41
13796;SHT30;40911;51.552;9.874;2023-08-08T13:01:24;18.17;77.43
13796;SHT30;40911;51.552;9.874;2023-08-08T13:03:48;18.08;77.22
13796;SHT30;40911;51.552;9.874;2023-08-08T13:06:09;17.69;76.00
13796;SHT30;40911;51.552;9.874;2023-08-08T13:08:33;17.57;75.98
13796;SHT30;40911;51.552;9.874;2023-08-08T13:10:55;17.71;77.15
13796;SHT30;40911;51.552;9.874;2023-08-08T13:13:16;17.46;76.30
13796;SHT30;40911;51.552;9.874;2023-08-08T13:15:38;17.07;75.97
13796;SHT30;40911;51.552;9.874;2023-08-08T13:18:00;16.87;75.92
13796;SHT30;40911;51.552;9.874;2023-08-08T13:20:25;16.95;77.38
13796;SHT30;40911;51.552;9.874;2023-08-08T13:22:46;16.66;78.78
13796;SHT30;40911;51.552;9.874;2023-08-08T13:25:08;16.64;79.51
13796;SHT30;40911;51.552;9.874;2023-08-08T13:27:30;16.61;80.32
13796;SHT30;40911;51.552;9.874;2023-08-08T13:29:52;16.83;80.89
13796;SHT30;40911;51.552;9.874;2023-08-08T13:32:14;17.46;81.39
13796;SHT30;40911;51.552;9.874;2023-08-08T13:34:36;17.54;80.10
13796;SHT30;40911;51.552;9.874;2023-08-08T13:36:59;17.45;80.91
13796;SHT30;40911;51.552;9.874;2023-08-08T13:39:21;17.12;79.96
13796;SHT30;40911;51.552;9.874;2023-08-08T13:41:42;17.00;79.15
13796;SHT30;40911;51.552;9.874;2023-08-08T13:44:04;17.42;78.88
13796;SHT30;40911;51.552;9.874;2023-08-08T13:46:26;17.67;78.35
13796;SHT30;40911;51.552;9.874;2023-08-08T13:48:48;17.52;77.62
13796;SHT30;40911;51.552;9.874;2023-08-08T13:51:10;17.31;78.10
13796;SHT30;40911;51.552;9.874;2023-08-08T13:53:33;17.07;78.45
13796;SHT30;40911;51.552;9.874;2023-08-08T13:55:55;16.91;78.74
13796;SHT30;40911;51.552;9.874;2023-08-08T13:58:17;17.11;78.90
13796;SHT30;40911;51.552;9.874;2023-08-08T14:00:42;17.24;78.25
13796;SHT30;40911;51.552;9.874;2023-08-08T14:03:05;17.19;76.87
13796;SHT30;40911;51.552;9.874;2023-08-08T14:05:27;18.30;75.22
13796;SHT30;40911;51.552;9.874;2023-08-08T14:07:49;17.73;74.99
13796;SHT30;40911;51.552;9.874;2023-08-08T14:10:12;18.07;74.36
13796;SHT30;40911;51.552;9.874;2023-08-08T14:12:33;17.86;74.02
13796;SHT30;40911;51.552;9.874;2023-08-08T14:14:55;18.83;73.89
13796;SHT30;40911;51.552;9.874;2023-08-08T14:17:17;18.57;73.37
13796;SHT30;40911;51.552;9.874;2023-08-08T14:19:38;18.49;71.14
13796;SHT30;40911;51.552;9.874;2023-08-08T14:22:00;19.16;71.44
13796;SHT30;40911;51.552;9.874;2023-08-08T14:24:21;19.00;71.61
13796;SHT30;40911;51.552;9.874;2023-08-08T14:26:45;18.94;71.60
13796;SHT30;40911;51.552;9.874;2023-08-08T14:29:07;18.80;72.66
13796;SHT30;40911;51.552;9.874;2023-08-08T14:31:29;18.73;72.01
13796;SHT30;40911;51.552;9.874;2023-08-08T14:33:51;18.67;71.79
13796;SHT30;40911;51.552;9.874;2023-08-08T14:36:12;18.52;73.80
13796;SHT30;40911;51.552;9.874;2023-08-08T14:38:35;18.69;73.18
13796;SHT30;40911;51.552;9.874;2023-08-08T14:40:57;18.51;73.14
13796;SHT30;40911;51.552;9.874;2023-08-08T14:43:20;18.55;73.88
13796;SHT30;40911;51.552;9.874;2023-08-08T14:45:43;18.70;73.85
13796;SHT30;40911;51.552;9.874;2023-08-08T14:48:06;18.45;75.01
13796;SHT30;40911;51.552;9.874;2023-08-08T14:50:28;18.18;75.84
13796;SHT30;40911;51.552;9.874;2023-08-08T14:52:50;18.48;75.71
13796;SHT30;40911;51.552;9.874;2023-08-08T14:55:11;18.30;73.77
13796;SHT30;40911;51.552;9.874;2023-08-08T14:57:33;18.60;73.02
13796;SHT30;40911;51.552;9.874;2023-08-08T14:59:57;18.38;73.03